Search for airport 
image banner adimage banner adimage banner ad
image banner ad

KBLU - Blue Canyon - Nyack

Located in Emigrant Gap, United States

ICAO - BLU, IATA - BLU

Data provided by Airmate  

General information

Coordinates: N39°16'30" W120°42'35"
Elevation is 5284 feet MSL.
Magnetic variation is 16° East
View others Airports in California

Operational data

Special qualification required
Current time UTC:
Current local time:
Weather
METAR: KBLU 240852Z AUTO 06004KT 10SM CLR 17/07 A3016 RMK AO2 SLP121 T01670067 51001
View NOTAMs / SUP AIP / TFR affecting this airport [VIEW]
Communications frequencies: [VIEW]

Runways:

RWY identifierQFULength (ft)Width (ft)SurfaceLDA (ft)
15330050ASPH
33330050ASPH

Airport contact information

Address: Emigrant Gap United States

Satellite view of KBLU